Data for 02/02/2006

Time Sea-Level Adjusted Pressure Absolute Pressure Temperature Relative Humidity Dew Point   
(mb) (inHg) (mb) (inHg) (C) (F) (%) (C) (F)
00:05 1008 29.77 838 24.75 1.3 34.3 50 -8.1 17.4
00:10 1008 29.77 838 24.75 1.4 34.5 49 -8.1 17.4
00:15 1008 29.77 838 24.75 1.4 34.5 50 -8.1 17.5
00:20 1008 29.77 838 24.75 1.4 34.5 50 -7.9 17.8
00:25 1008 29.77 838 24.75 1.4 34.5 50 -7.9 17.8
00:30 1009 29.8 838 24.75 1.4 34.5 50 -8 17.6
00:35 1009 29.8 838 24.75 1.4 34.5 50 -8 17.6
00:40 1009 29.8 838 24.75 1.4 34.5 49 -8.3 17.1
00:45 1008 29.77 838 24.75 1.4 34.6 47 -8.6 16.5
00:50 1009 29.8 838 24.75 1.5 34.7 48 -8.4 16.9
00:55 1009 29.8 838 24.75 1.4 34.6 49 -8.2 17.3
01:00 1008 29.77 838 24.75 1.3 34.3 49 -8.1 17.3
01:05 1008 29.77 838 24.75 1.2 34.2 50 -8 17.6
01:10 1008 29.77 838 24.75 1.2 34.1 50 -8.1 17.4
01:15 1008 29.77 838 24.75 1 33.8 52 -7.7 18.2
01:20 1008 29.77 838 24.75 0.9 33.7 52 -7.8 18
01:25 1008 29.77 837 24.72 0.9 33.6 54 -7.4 18.7
01:30 1008 29.77 838 24.75 0.8 33.4 54 -7.6 18.3
01:35 1008 29.77 838 24.75 0.8 33.4 54 -7.4 18.7
01:40 1008 29.77 838 24.75 0.8 33.5 55 -7.3 18.8
01:45 1008 29.77 838 24.75 0.8 33.4 54 -7.4 18.6
01:50 1008 29.77 838 24.75 0.8 33.4 55 -7.3 18.9
01:55 1008 29.77 838 24.75 0.8 33.4 54 -7.5 18.4
02:00 1008 29.77 838 24.75 0.7 33.3 54 -7.6 18.3
02:05 1008 29.77 838 24.75 0.7 33.2 54 -7.5 18.4
02:10 1009 29.8 838 24.75 0.7 33.3 54 -7.7 18.2
02:15 1009 29.8 838 24.75 0.6 33.1 54 -7.7 18.1
02:20 1009 29.8 838 24.75 0.6 33.1 54 -7.6 18.4
02:25 1009 29.8 838 24.75 0.5 33 54 -7.6 18.3
02:30 1009 29.8 838 24.75 0.4 32.8 56 -7.4 18.6
02:35 1009 29.8 838 24.75 0.4 32.7 54 -7.8 18
02:40 1009 29.8 838 24.75 0.6 33.1 52 -8.2 17.2
02:45 1009 29.8 838 24.75 0.5 32.8 54 -7.7 18.1
02:50 1009 29.8 838 24.75 0.3 32.5 56 -7.6 18.3
02:55 1009 29.8 838 24.75 0.1 32.3 56 -7.7 18.1
03:00 1009 29.8 838 24.75 0.1 32.2 56 -7.7 18.1
03:05 1009 29.8 838 24.75 0.2 32.4 56 -7.6 18.3
03:10 1009 29.8 838 24.75 0.3 32.6 53 -8.1 17.5
03:15 1009 29.8 838 24.75 0.4 32.8 53 -8 17.5
03:20 1009 29.8 838 24.75 0.5 32.9 52 -8.1 17.3
03:25 1009 29.8 838 24.75 0.6 33.1 53 -7.9 17.8
03:30 1008 29.77 838 24.75 0.5 32.8 54 -7.8 17.9
03:35 1008 29.77 838 24.75 0.4 32.7 55 -7.6 18.4
03:40 1008 29.77 838 24.75 0.3 32.6 56 -7.5 18.5
03:45 1008 29.77 838 24.75 0.4 32.8 54 -7.8 17.9
03:50 1008 29.77 838 24.75 0.5 33 53 -7.9 17.8
03:55 1008 29.77 838 24.75 0.7 33.2 53 -7.9 17.7
04:00 1009 29.8 838 24.75 0.7 33.3 53 -7.8 17.9
04:05 1009 29.8 838 24.75 0.7 33.3 53 -7.8 17.9
04:10 1009 29.8 838 24.75 0.6 33.2 54 -7.6 18.3
04:15 1009 29.8 838 24.75 0.6 33 54 -7.6 18.3
04:20 1009 29.8 838 24.75 0.6 33.1 54 -7.7 18.2
04:25 1009 29.8 838 24.75 0.6 33.1 53 -7.8 18
04:30 1009 29.8 838 24.75 0.4 32.8 54 -7.8 17.9
04:35 1009 29.8 838 24.75 0.5 32.9 53 -8 17.5
04:40 1009 29.8 838 24.75 0.7 33.2 52 -8.1 17.4
04:45 1009 29.8 838 24.75 0.7 33.3 52 -8 17.6
04:50 1009 29.8 838 24.75 0.7 33.2 52 -8 17.5
04:55 1009 29.8 838 24.75 0.7 33.3 52 -8.1 17.5
05:00 1009 29.8 838 24.75 0.8 33.4 51 -8.3 17.1
05:05 1009 29.8 838 24.75 0.8 33.4 50 -8.4 16.9
05:10 1009 29.8 838 24.75 0.7 33.3 52 -8 17.6
05:15 1009 29.8 838 24.75 0.7 33.3 53 -7.9 17.9
05:20 1009 29.8 838 24.75 0.7 33.2 54 -7.7 18.2
05:25 1009 29.8 838 24.75 0.5 33 52 -8.2 17.3
05:30 1009 29.8 838 24.75 0.6 33.1 52 -8.2 17.2
05:35 1009 29.8 838 24.75 0.5 33 53 -7.9 17.8
05:40 1009 29.8 838 24.75 0.3 32.5 55 -7.8 17.9
05:45 1009 29.8 838 24.75 0.5 32.8 51 -8.6 16.5
05:50 1009 29.8 838 24.75 0.7 33.3 50 -8.5 16.8
05:55 1009 29.8 839 24.78 0.8 33.4 50 -8.5 16.7
06:00 1009 29.8 839 24.78 0.8 33.4 49 -8.7 16.3
06:05 1009 29.8 839 24.78 0.8 33.5 50 -8.5 16.7
06:10 1009 29.8 839 24.78 0.8 33.4 51 -8.3 17.1
06:15 1009 29.8 839 24.78 0.7 33.2 51 -8.4 16.9
06:20 1009 29.8 839 24.78 0.6 33.2 51 -8.3 17.1
06:25 1010 29.83 839 24.78 0.6 33 52 -8.3 17.1
06:30 1010 29.83 839 24.78 0.4 32.8 52 -8.3 17
06:35 1010 29.83 839 24.78 0.3 32.5 53 -8.2 17.3
06:40 1010 29.83 839 24.78 0.1 32.2 55 -8 17.6
06:45 1010 29.83 839 24.78 0 32 53 -8.5 16.6
06:50 1010 29.83 839 24.78 0.2 32.4 52 -8.5 16.7
06:55 1010 29.83 839 24.78 0.4 32.8 51 -8.7 16.4
07:00 1010 29.83 839 24.78 0.6 33 50 -8.6 16.5
07:05 1010 29.83 839 24.78 0.3 32.6 51 -8.6 16.6
07:10 1010 29.83 839 24.78 0.3 32.5 51 -8.6 16.5
07:15 1010 29.83 839 24.78 0.3 32.6 51 -8.5 16.6
07:20 1010 29.83 839 24.78 0.4 32.7 53 -8.2 17.2
07:25 1010 29.83 839 24.78 0.1 32.2 52 -8.7 16.4
07:30 1010 29.83 839 24.78 0.2 32.3 51 -8.7 16.3
07:35 1010 29.83 839 24.78 0.3 32.5 49 -9.2 15.4
07:40 1010 29.83 839 24.78 0.3 32.6 50 -8.8 16.1
07:45 1010 29.83 839 24.78 0.2 32.4 50 -9.1 15.6
07:50 1010 29.83 839 24.78 0.4 32.8 49 -9.1 15.7
07:55 1010 29.83 839 24.78 0.6 33.1 48 -9.3 15.3
08:00 1010 29.83 839 24.78 0.5 33 49 -8.9 16
08:05 1010 29.83 839 24.78 0.3 32.6 51 -8.7 16.3
08:10 1010 29.83 839 24.78 0.3 32.5 50 -9 15.8
08:15 1010 29.83 839 24.78 0.3 32.6 49 -9.2 15.4
08:20 1010 29.83 839 24.78 0.5 32.9 47 -9.4 15
08:25 1010 29.83 839 24.78 0.6 33.1 48 -9.3 15.3
08:30 1010 29.83 839 24.78 0.6 33 48 -9.1 15.6
08:35 1010 29.83 839 24.78 0.6 33.2 46 -9.7 14.5
08:40 1010 29.83 839 24.78 0.8 33.4 46 -9.5 14.9
08:45 1010 29.83 839 24.78 0.8 33.5 47 -9.2 15.4
08:50 1010 29.83 839 24.78 0.8 33.4 48 -9 15.7
08:55 1010 29.83 839 24.78 0.8 33.4 48 -8.9 15.9
09:00 1010 29.83 839 24.78 0.8 33.5 47 -9.2 15.5
09:05 1010 29.83 839 24.78 1 33.8 47 -9 15.8
09:10 1010 29.83 839 24.78 1 33.7 47 -9.2 15.4
09:15 1010 29.83 839 24.78 1.2 34.2 46 -9.1 15.6
09:20 1010 29.83 839 24.78 1.7 35.1 43 -9.6 14.8
09:25 1010 29.83 839 24.78 2.1 35.8 43 -9.2 15.4
09:30 1010 29.83 839 24.78 2.5 36.5 42 -9.2 15.4
09:35 1010 29.83 839 24.78 2.6 36.7 41 -9.4 15
09:40 1010 29.83 839 24.78 2.8 37 41 -9.3 15.2
09:45 1010 29.83 839 24.78 3 37.3 43 -8.5 16.7
09:50 1010 29.83 839 24.78 2.4 36.3 46 -8.1 17.4
09:55 1010 29.83 839 24.78 2.5 36.4 45 -8.2 17.2
10:00 1010 29.83 839 24.78 2.9 37.3 43 -8.5 16.7
10:05 1010 29.83 839 24.78 3 37.3 42 -8.7 16.4
10:10 1010 29.83 839 24.78 2.7 36.8 44 -8.5 16.7
10:15 1010 29.83 839 24.78 2.6 36.7 43 -8.6 16.5
10:20 1010 29.83 839 24.78 3.2 37.7 43 -8.3 17
10:25 1010 29.83 839 24.78 2.6 36.7 45 -8.1 17.5
10:30 1010 29.83 840 24.81 3.2 37.8 43 -8.1 17.3
10:35 1010 29.83 840 24.81 3.2 37.7 44 -7.9 17.9
10:40 1011 29.85 840 24.81 3.1 37.7 45 -7.7 18.1
10:45 1011 29.85 840 24.81 3.2 37.7 44 -7.9 17.7
10:50 1011 29.85 840 24.81 3.2 37.8 45 -7.5 18.4
10:55 1011 29.85 840 24.81 3.4 38.1 42 -8.3 17
11:00 1011 29.85 840 24.81 3.3 37.9 43 -8.2 17.3
11:05 1011 29.85 840 24.81 3.2 37.7 45 -7.6 18.4
11:10 1011 29.85 840 24.81 3.1 37.5 43 -8.3 17.1
11:15 1011 29.85 840 24.81 3.2 37.8 43 -8.1 17.4
11:20 1011 29.85 840 24.81 3.3 38 43 -8 17.6
11:25 1011 29.85 840 24.81 2.9 37.2 45 -7.9 17.8
11:30 1011 29.85 840 24.81 3 37.4 46 -7.6 18.3
11:35 1011 29.85 840 24.81 3.2 37.7 44 -7.9 17.8
11:40 1011 29.85 840 24.81 3 37.4 44 -8 17.6
11:45 1011 29.85 840 24.81 2.9 37.2 47 -7.4 18.6
11:50 1011 29.85 840 24.81 3.2 37.8 43 -8.2 17.3
11:55 1011 29.85 840 24.81 3.3 37.9 43 -8.2 17.2
12:00 1010 29.83 840 24.81 3.5 38.3 42 -8.1 17.4
12:05 1010 29.83 840 24.81 3.5 38.3 43 -7.8 17.9
12:10 1010 29.83 840 24.81 3.7 38.7 44 -7.6 18.3
12:15 1010 29.83 839 24.78 3.7 38.6 42 -8 17.6
12:20 1010 29.83 839 24.78 3.8 38.8 41 -8.2 17.3
12:25 1010 29.83 839 24.78 3.5 38.3 40 -9 15.8
12:30 1010 29.83 839 24.78 3.5 38.4 38 -9.3 15.2
12:35 1010 29.83 839 24.78 3.7 38.7 39 -9.2 15.5
12:40 1010 29.83 839 24.78 4 39.2 39 -8.7 16.3
12:45 1010 29.83 839 24.78 4.1 39.3 38 -9.1 15.7
12:50 1010 29.83 839 24.78 4 39.1 40 -8.5 16.7
12:55 1010 29.83 839 24.78 4.1 39.4 39 -8.6 16.6
13:00 1010 29.83 839 24.78 4.3 39.8 37 -9 15.7
13:05 1010 29.83 839 24.78 4.4 39.8 37 -9.2 15.4
13:10 1010 29.83 839 24.78 4.3 39.7 38 -8.8 16.2
13:15 1010 29.83 839 24.78 4.3 39.8 37 -9.2 15.5
13:20 1010 29.83 839 24.78 4.2 39.6 37 -9.2 15.4
13:25 1010 29.83 839 24.78 4 39.2 40 -8.4 16.8
13:30 1010 29.83 839 24.78 3.5 38.3 42 -8.1 17.4
13:35 1010 29.83 839 24.78 3 37.4 44 -8.1 17.5
13:40 1010 29.83 839 24.78 2.8 37 45 -7.9 17.8
13:45 1010 29.83 839 24.78 3 37.3 46 -7.7 18.2
13:50 1010 29.83 839 24.78 3.3 38 46 -7.2 19
13:55 1010 29.83 839 24.78 3.4 38.1 44 -7.6 18.3
14:00 1010 29.83 839 24.78 3.6 38.4 43 -7.8 18
14:05 1010 29.83 839 24.78 3.5 38.3 44 -7.6 18.4
14:10 1010 29.83 839 24.78 3.8 38.8 44 -7.5 18.5
14:15 1010 29.83 839 24.78 3.9 39.1 44 -7.2 19.1
14:20 1010 29.83 839 24.78 3.9 39.1 43 -7.6 18.3
14:25 1010 29.83 839 24.78 3.8 38.8 44 -7.4 18.6
14:30 1010 29.83 839 24.78 3.8 38.8 44 -7.5 18.6
14:35 1010 29.83 839 24.78 3.8 38.8 45 -7.3 18.9
14:40 1010 29.83 839 24.78 3.7 38.7 45 -7 19.4
14:45 1010 29.83 839 24.78 3.7 38.6 45 -7 19.3
14:50 1010 29.83 839 24.78 3.7 38.7 46 -7 19.5
14:55 1010 29.83 839 24.78 3.7 38.7 46 -6.9 19.6
15:00 1010 29.83 839 24.78 3.6 38.4 44 -7.5 18.6
15:05 1010 29.83 839 24.78 3.7 38.6 44 -7.5 18.5
15:10 1010 29.83 839 24.78 3.6 38.5 44 -7.7 18.2
15:15 1010 29.83 839 24.78 3.6 38.6 43 -7.9 17.8
15:20 1010 29.83 839 24.78 3.6 38.5 45 -7.3 18.8
15:25 1010 29.83 839 24.78 3.5 38.4 44 -7.7 18.2
15:30 1010 29.83 839 24.78 3.4 38.2 47 -6.7 20
15:35 1010 29.83 839 24.78 3.2 37.8 47 -7.2 19.1
15:40 1010 29.83 839 24.78 3.5 38.3 46 -7.1 19.3
15:45 1010 29.83 839 24.78 3.3 38 48 -6.6 20.1
15:50 1010 29.83 839 24.78 3 37.4 50 -6.4 20.5
15:55 1010 29.83 839 24.78 2.9 37.1 50 -6.6 20.1
16:00 1010 29.83 839 24.78 2.9 37.2 49 -6.8 19.7
16:05 1010 29.83 839 24.78 3 37.4 49 -6.8 19.7
16:10 1010 29.83 839 24.78 2.7 36.8 51 -6.5 20.2
16:15 1010 29.83 839 24.78 2.4 36.4 51 -6.6 20
16:20 1010 29.83 839 24.78 2.4 36.3 51 -6.7 19.9
16:25 1010 29.83 839 24.78 2.3 36.1 50 -7 19.5
16:30 1010 29.83 839 24.78 2.4 36.3 49 -7.2 19
16:35 1010 29.83 840 24.81 2.6 36.7 43 -8.9 16
16:40 1010 29.83 840 24.81 3 37.5 45 -7.7 18.1
16:45 1011 29.85 840 24.81 3 37.4 46 -7.6 18.3
16:50 1011 29.85 840 24.81 2.8 37 49 -6.8 19.8
16:55 1011 29.85 840 24.81 2.1 35.7 56 -5.8 21.6
17:00 1011 29.85 841 24.83 1.4 34.4 57 -6.2 20.8
17:05 1011 29.85 840 24.81 1.4 34.5 53 -7.1 19.2
17:10 1011 29.85 840 24.81 1.8 35.2 52 -7 19.4
17:15 1011 29.85 841 24.83 1.8 35.2 53 -6.7 19.9
17:20 1011 29.85 841 24.83 1.7 35.1 53 -6.8 19.8
17:25 1012 29.88 841 24.83 1.7 35.1 52 -7 19.4
17:30 1011 29.85 841 24.83 1.6 34.9 53 -7 19.5
17:35 1012 29.88 841 24.83 1.5 34.6 55 -6.7 20
17:40 1012 29.88 841 24.83 1.3 34.3 58 -6.1 21
17:45 1012 29.88 841 24.83 1 33.8 60 -6 21.2
17:50 1012 29.88 841 24.83 0.9 33.7 60 -6 21.2
17:55 1012 29.88 841 24.83 0.7 33.3 62 -5.7 21.8
18:00 1012 29.88 841 24.83 0.3 32.5 64 -5.7 21.7
18:05 1012 29.88 841 24.83 0.4 32.8 63 -5.8 21.6
18:10 1012 29.88 841 24.83 0.5 32.8 62 -5.9 21.3
18:15 1012 29.88 841 24.83 0.5 32.9 62 -5.9 21.4
18:20 1012 29.88 841 24.83 0.3 32.5 62 -6.1 21
18:25 1012 29.88 841 24.83 0.3 32.5 63 -6 21.2
18:30 1012 29.88 841 24.83 0.5 32.9 59 -6.5 20.2
18:35 1012 29.88 841 24.83 0.8 33.5 57 -6.7 20
18:40 1012 29.88 841 24.83 1 33.8 57 -6.6 20.2
18:45 1012 29.88 842 24.86 1 33.8 57 -6.5 20.3
18:50 1012 29.88 842 24.86 1 33.8 57 -6.5 20.3
18:55 1013 29.91 842 24.86 1 33.8 57 -6.5 20.2
19:00 1013 29.91 842 24.86 0.9 33.6 58 -6.4 20.4
19:05 1013 29.91 842 24.86 0.9 33.5 58 -6.5 20.3
19:10 1013 29.91 842 24.86 0.8 33.5 58 -6.5 20.3
19:15 1013 29.91 842 24.86 0.7 33.3 58 -6.5 20.2
19:20 1013 29.91 842 24.86 0.5 32.9 59 -6.7 19.9
19:25 1013 29.91 842 24.86 0.1 32.2 60 -6.7 19.9
19:30 1013 29.91 842 24.86 0 32.1 60 -6.9 19.6
19:35 1013 29.91 842 24.86 -0.1 31.8 60 -6.9 19.6
19:40 1013 29.91 842 24.86 -0.6 30.9 61 -7.1 19.2
19:45 1013 29.91 842 24.86 -1 30.2 63 -7.2 19
19:50 1013 29.91 842 24.86 -1 30.2 62 -7.5 18.5
19:55 1013 29.91 842 24.86 -1.1 30 62 -7.4 18.6
20:00 1013 29.91 842 24.86 -1.1 30.1 59 -8 17.6
20:05 1013 29.91 842 24.86 -0.9 30.3 58 -8.3 17.1
20:10 1013 29.91 842 24.86 -0.6 30.8 57 -8.1 17.4
20:15 1013 29.91 842 24.86 -0.7 30.8 57 -8.1 17.4
20:20 1013 29.91 842 24.86 -0.9 30.4 57 -8.4 17
20:25 1013 29.91 843 24.89 -0.8 30.5 54 -8.9 15.9
20:30 1013 29.91 843 24.89 -0.4 31.4 54 -8.7 16.4
20:35 1013 29.91 842 24.86 -0.3 31.6 53 -8.6 16.4
20:40 1013 29.91 843 24.89 -0.5 31.1 55 -8.4 16.9
20:45 1013 29.91 843 24.89 -0.7 30.8 55 -8.7 16.4
20:50 1013 29.91 843 24.89 -0.8 30.6 54 -9.1 15.6
20:55 1014 29.94 843 24.89 -0.9 30.4 54 -9 15.8
21:00 1013 29.91 843 24.89 -0.9 30.3 54 -9.1 15.7
21:05 1013 29.91 843 24.89 -0.9 30.4 55 -8.9 15.9
21:10 1014 29.94 843 24.89 -1 30.2 54 -9.2 15.5
21:15 1014 29.94 843 24.89 -0.9 30.3 52 -9.7 14.6
21:20 1013 29.91 843 24.89 -0.8 30.6 51 -9.7 14.5
21:25 1013 29.91 843 24.89 -0.6 30.9 49 -10 14
21:30 1013 29.91 843 24.89 -0.6 30.9 51 -9.4 15
21:35 1013 29.91 843 24.89 -0.6 30.9 52 -9.4 15.1
21:40 1013 29.91 843 24.89 -0.6 30.9 51 -9.5 14.9
21:45 1013 29.91 843 24.89 -0.6 31 52 -9.3 15.2
21:50 1013 29.91 843 24.89 -0.6 30.8 52 -9.3 15.2
21:55 1013 29.91 843 24.89 -0.8 30.6 51 -9.6 14.7
22:00 1013 29.91 843 24.89 -0.5 31 50 -9.8 14.4
22:05 1013 29.91 843 24.89 -0.3 31.4 46 -10.6 13
22:10 1013 29.91 843 24.89 -0.1 31.7 43 -11.2 11.9
22:15 1014 29.94 843 24.89 -0 32 48 -9.9 14.3
22:20 1014 29.94 843 24.89 -0.3 31.5 47 -10.3 13.4
22:25 1014 29.94 843 24.89 -0.6 30.9 49 -10.2 13.7
22:30 1014 29.94 843 24.89 -1.1 30 50 -10.4 13.3
22:35 1014 29.94 843 24.89 -1 30.2 43 -11.9 10.5
22:40 1014 29.94 843 24.89 -0.7 30.8 45 -11.1 12
22:45 1014 29.94 843 24.89 -0.6 30.9 44 -11.4 11.5
22:50 1014 29.94 843 24.89 -0.8 30.5 44 -11.7 11
22:55 1014 29.94 843 24.89 -1.1 30 45 -11.5 11.3
23:00 1014 29.94 843 24.89 -1.1 30 45 -11.5 11.3
23:05 1014 29.94 843 24.89 -1.2 29.8 45 -11.6 11.2
23:10 1014 29.94 843 24.89 -1.5 29.4 46 -11.6 11.1
23:15 1014 29.94 843 24.89 -1.4 29.5 45 -11.9 10.7
23:20 1014 29.94 843 24.89 -1.1 29.9 45 -11.7 10.9
23:25 1014 29.94 843 24.89 -0.9 30.3 43 -11.9 10.5
23:30 1014 29.94 843 24.89 -0.8 30.5 44 -11.7 11
23:35 1014 29.94 843 24.89 -0.6 30.9 44 -11.5 11.2
23:40 1014 29.94 843 24.89 -0.6 30.9 44 -11.3 11.7
23:45 1014 29.94 843 24.89 -0.6 30.9 43 -11.6 11.2
23:50 1014 29.94 843 24.89 -0.4 31.3 42 -11.8 10.7
23:55 1014 29.94 843 24.89 -0.6 31 44 -11.3 11.6
24:00 1014 29.94 843 24.89 -1 30.2 45 -11.5 11.2